createdAt,value
2019-05-21T00:00:18.849Z,13.03
2019-05-21T00:02:47.024Z,13.02
2019-05-21T00:05:15.223Z,13.00
2019-05-21T00:07:43.465Z,13.01
2019-05-21T00:10:11.801Z,13.01
2019-05-21T00:12:39.990Z,13.00
2019-05-21T00:15:08.277Z,12.99
2019-05-21T00:17:36.484Z,12.96
2019-05-21T00:20:04.881Z,12.90
2019-05-21T00:22:33.185Z,12.84
2019-05-21T00:25:01.417Z,12.78
2019-05-21T00:27:29.760Z,12.73
2019-05-21T00:30:33.657Z,12.68
2019-05-21T00:33:37.285Z,12.62
2019-05-21T00:36:41.454Z,12.63
2019-05-21T00:39:45.584Z,12.60
2019-05-21T00:42:18.554Z,12.56
2019-05-21T00:44:46.821Z,12.57
2019-05-21T00:47:15.167Z,12.57
2019-05-21T00:49:43.370Z,12.56
2019-05-21T00:52:11.676Z,12.56
2019-05-21T00:54:39.964Z,12.55
2019-05-21T00:57:08.191Z,12.55
2019-05-21T00:59:36.437Z,12.55
2019-05-21T01:02:04.647Z,12.56
2019-05-21T01:04:32.885Z,12.55
2019-05-21T01:07:04.758Z,12.54
2019-05-21T01:09:32.952Z,12.53
2019-05-21T01:12:04.111Z,12.52
2019-05-21T01:14:32.295Z,12.51
2019-05-21T01:17:00.498Z,12.48
2019-05-21T01:19:30.990Z,12.45
2019-05-21T01:21:59.173Z,12.41
2019-05-21T01:24:27.351Z,12.38
2019-05-21T01:26:55.571Z,12.35
2019-05-21T01:29:23.789Z,12.35
2019-05-21T01:31:51.986Z,12.33
2019-05-21T01:34:20.212Z,12.35
2019-05-21T01:36:48.500Z,12.31
2019-05-21T01:39:16.695Z,12.31
2019-05-21T01:41:45.009Z,12.31
2019-05-21T01:44:13.222Z,12.32
2019-05-21T01:46:41.466Z,12.34
2019-05-21T01:49:09.663Z,12.34
2019-05-21T01:51:37.906Z,12.31
2019-05-21T01:54:06.100Z,12.26
2019-05-21T01:56:34.320Z,12.26
2019-05-21T01:59:02.662Z,12.22
2019-05-21T02:01:30.865Z,12.19
2019-05-21T02:03:59.094Z,12.15
2019-05-21T02:06:27.281Z,12.13
2019-05-21T02:08:55.498Z,12.11
2019-05-21T02:11:23.758Z,12.12
2019-05-21T02:13:51.979Z,12.12
2019-05-21T02:16:20.331Z,12.13
2019-05-21T02:18:48.566Z,12.12
2019-05-21T02:21:16.767Z,12.08
2019-05-21T02:23:44.967Z,12.07
2019-05-21T02:26:13.177Z,12.07
2019-05-21T02:28:41.442Z,12.03
2019-05-21T02:31:09.620Z,12.03
2019-05-21T02:33:37.858Z,12.01
2019-05-21T02:36:06.073Z,12.00
2019-05-21T02:38:34.253Z,12.01
2019-05-21T02:41:03.481Z,12.01
2019-05-21T02:43:31.691Z,11.99
2019-05-21T02:45:59.913Z,11.99
2019-05-21T02:48:28.139Z,11.99
2019-05-21T02:50:56.362Z,11.94
2019-05-21T02:53:24.590Z,11.93
2019-05-21T02:55:52.853Z,11.93
2019-05-21T02:58:21.088Z,11.90
2019-05-21T03:00:49.280Z,11.90
2019-05-21T03:03:17.505Z,11.90
2019-05-21T03:05:45.733Z,11.93
2019-05-21T03:08:13.942Z,11.93
2019-05-21T03:10:42.170Z,11.94
2019-05-21T03:13:10.450Z,11.97
2019-05-21T03:15:38.751Z,11.94
2019-05-21T03:18:07.092Z,11.91
2019-05-21T03:20:35.369Z,11.89
2019-05-21T03:23:05.390Z,11.89
2019-05-21T03:25:33.708Z,11.88
2019-05-21T03:28:02.847Z,11.85
2019-05-21T03:30:31.172Z,11.84
2019-05-21T03:33:00.007Z,11.82
2019-05-21T03:35:28.189Z,11.83
2019-05-21T03:37:56.389Z,11.82
2019-05-21T03:40:24.613Z,11.83
2019-05-21T03:42:52.932Z,11.82
2019-05-21T03:45:21.161Z,11.82
2019-05-21T03:47:49.379Z,11.82
2019-05-21T03:50:17.559Z,11.83
2019-05-21T03:52:45.891Z,11.83
2019-05-21T03:55:14.109Z,11.85
2019-05-21T03:57:42.327Z,11.86
2019-05-21T04:00:11.351Z,11.88
2019-05-21T04:02:39.689Z,11.89
2019-05-21T04:05:08.257Z,11.90
2019-05-21T04:07:36.491Z,11.88
2019-05-21T04:10:07.359Z,11.87
2019-05-21T04:12:35.569Z,11.83
2019-05-21T04:15:04.260Z,11.79
2019-05-21T04:17:34.797Z,11.76
2019-05-21T04:20:05.250Z,11.75
2019-05-21T04:22:33.475Z,11.76
2019-05-21T04:25:03.261Z,11.77
2019-05-21T04:27:31.495Z,11.78
2019-05-21T04:29:59.713Z,11.79
2019-05-21T04:32:27.960Z,11.77
2019-05-21T04:34:56.274Z,11.73
2019-05-21T04:37:24.520Z,11.72
2019-05-21T04:39:52.791Z,11.72
2019-05-21T04:42:20.988Z,11.75
2019-05-21T04:44:49.279Z,11.78
2019-05-21T04:47:17.541Z,11.80
2019-05-21T04:49:45.773Z,11.76
2019-05-21T04:52:14.004Z,11.75
2019-05-21T04:54:42.247Z,11.73
2019-05-21T04:57:10.521Z,11.72
2019-05-21T04:59:38.788Z,11.74
2019-05-21T05:02:07.044Z,11.76
2019-05-21T05:04:35.294Z,11.74
2019-05-21T05:07:04.001Z,11.71
2019-05-21T05:09:32.196Z,11.70
2019-05-21T05:12:00.434Z,11.68
2019-05-21T05:14:28.635Z,11.69
2019-05-21T05:16:56.838Z,11.69
2019-05-21T05:19:25.086Z,11.68
2019-05-21T05:21:53.437Z,11.69
2019-05-21T05:24:21.631Z,11.71
2019-05-21T05:26:49.881Z,11.73
2019-05-21T05:29:18.067Z,11.71
2019-05-21T05:31:46.247Z,11.69
2019-05-21T05:34:14.537Z,11.70
2019-05-21T05:36:42.743Z,11.69
2019-05-21T05:39:10.942Z,11.65
2019-05-21T05:41:39.283Z,11.65
2019-05-21T05:44:07.504Z,11.67
2019-05-21T05:46:35.726Z,11.69
2019-05-21T05:49:03.922Z,11.73
2019-05-21T05:51:32.160Z,11.75
2019-05-21T05:54:00.375Z,11.76
2019-05-21T05:56:29.368Z,11.76
2019-05-21T05:58:57.752Z,11.77
2019-05-21T06:01:26.094Z,11.80
2019-05-21T06:03:54.303Z,11.84
2019-05-21T06:06:22.513Z,11.87
2019-05-21T06:08:50.715Z,11.90
2019-05-21T06:11:18.918Z,11.90
2019-05-21T06:13:47.256Z,11.94
2019-05-21T06:16:15.478Z,11.99
2019-05-21T06:18:43.677Z,12.03
2019-05-21T06:21:11.975Z,12.06
2019-05-21T06:23:40.234Z,12.05
2019-05-21T06:26:08.403Z,12.04
2019-05-21T06:28:36.610Z,12.04
2019-05-21T06:31:04.867Z,12.07
2019-05-21T06:33:33.074Z,12.09
2019-05-21T06:36:03.977Z,12.09
2019-05-21T06:38:32.093Z,12.11
2019-05-21T06:41:00.258Z,12.13
2019-05-21T06:43:28.401Z,12.13
2019-05-21T06:45:56.608Z,12.14
2019-05-21T06:48:24.768Z,12.20
2019-05-21T06:50:52.961Z,12.23
2019-05-21T06:53:21.040Z,12.29
2019-05-21T06:55:49.228Z,12.35
2019-05-21T06:58:17.383Z,12.40
2019-05-21T07:00:45.501Z,12.48
2019-05-21T07:03:13.662Z,12.52
2019-05-21T07:05:57.745Z,12.59
2019-05-21T07:08:11.612Z,12.64
2019-05-21T07:10:39.789Z,12.71
2019-05-21T07:13:07.987Z,12.75
2019-05-21T07:15:36.193Z,12.78
2019-05-21T07:18:04.316Z,12.82
2019-05-21T07:20:32.504Z,12.84
2019-05-21T07:23:00.870Z,12.88
2019-05-21T07:25:29.033Z,12.93
2019-05-21T07:27:57.206Z,13.00
2019-05-21T07:30:25.345Z,13.07
2019-05-21T07:32:53.521Z,13.12
2019-05-21T07:35:21.589Z,13.15
2019-05-21T07:37:49.737Z,13.17
2019-05-21T07:40:18.056Z,13.18
2019-05-21T07:42:46.171Z,13.24
2019-05-21T07:45:14.591Z,13.30
2019-05-21T07:47:42.710Z,13.35
2019-05-21T07:50:11.813Z,13.41
2019-05-21T07:52:39.963Z,13.46
2019-05-21T07:55:08.169Z,13.52
2019-05-21T07:57:36.450Z,13.55
2019-05-21T08:00:06.881Z,13.57
2019-05-21T08:02:35.039Z,13.60
2019-05-21T08:05:03.724Z,13.65
2019-05-21T08:07:31.925Z,13.67
2019-05-21T08:10:00.056Z,13.70
2019-05-21T08:12:39.095Z,13.75
2019-05-21T08:14:58.142Z,13.79
2019-05-21T08:17:26.420Z,13.83
2019-05-21T08:19:54.583Z,13.86
2019-05-21T08:22:22.709Z,13.88
2019-05-21T08:24:50.857Z,13.94
2019-05-21T08:27:19.009Z,13.92
2019-05-21T08:29:47.196Z,13.97
2019-05-21T08:32:15.319Z,13.97
2019-05-21T08:34:44.713Z,13.99
2019-05-21T08:37:12.810Z,13.99
2019-05-21T08:39:40.957Z,14.04
2019-05-21T08:42:09.103Z,14.10
2019-05-21T08:44:37.228Z,14.15
2019-05-21T08:47:05.448Z,14.19
2019-05-21T08:49:33.541Z,14.23
2019-05-21T08:52:05.459Z,14.23
2019-05-21T08:54:33.590Z,14.22
2019-05-21T08:57:01.711Z,14.23
2019-05-21T08:59:29.804Z,14.26
2019-05-21T09:01:59.071Z,14.30
2019-05-21T09:04:45.431Z,14.29
2019-05-21T09:06:57.425Z,14.27
2019-05-21T09:09:25.546Z,14.21
2019-05-21T09:11:53.681Z,14.20
2019-05-21T09:14:21.980Z,14.18
2019-05-21T09:16:50.151Z,14.22
2019-05-21T09:19:18.322Z,14.26
2019-05-21T09:21:46.460Z,14.28
2019-05-21T09:24:14.642Z,14.28
2019-05-21T09:26:43.503Z,14.30
2019-05-21T09:29:11.641Z,14.35
2019-05-21T09:31:39.752Z,14.41
2019-05-21T09:34:07.878Z,14.49
2019-05-21T09:36:36.119Z,14.56
2019-05-21T09:39:05.717Z,14.65
2019-05-21T09:41:33.851Z,14.75
2019-05-21T09:44:02.008Z,14.80
2019-05-21T09:46:30.147Z,14.87
2019-05-21T09:48:58.243Z,14.89
2019-05-21T09:51:26.500Z,14.87
2019-05-21T09:53:54.781Z,14.91
2019-05-21T09:56:23.013Z,14.96
2019-05-21T09:58:51.268Z,14.96
2019-05-21T10:01:19.438Z,14.94
2019-05-21T10:03:47.571Z,14.96
2019-05-21T10:06:15.662Z,14.96
2019-05-21T10:08:43.818Z,14.90
2019-05-21T10:11:11.956Z,14.82
2019-05-21T10:13:40.088Z,14.76
2019-05-21T10:16:08.211Z,14.69
2019-05-21T10:18:36.323Z,14.65
2019-05-21T10:21:05.615Z,14.65
2019-05-21T10:23:33.795Z,14.61
2019-05-21T10:26:03.707Z,14.59
2019-05-21T10:28:31.847Z,14.56
2019-05-21T10:31:00.743Z,14.51
2019-05-21T10:33:28.901Z,14.51
2019-05-21T10:35:57.045Z,14.50
2019-05-21T10:38:25.683Z,14.54
2019-05-21T10:40:53.860Z,14.54
2019-05-21T10:43:21.967Z,14.55
2019-05-21T10:45:50.244Z,14.59
2019-05-21T10:48:18.378Z,14.62
2019-05-21T10:50:46.509Z,14.68
2019-05-21T10:53:14.695Z,14.77
2019-05-21T10:55:42.854Z,14.78
2019-05-21T10:58:10.975Z,14.65
2019-05-21T11:00:39.370Z,14.64
2019-05-21T11:03:07.604Z,14.63
2019-05-21T11:05:35.759Z,14.63
2019-05-21T11:08:23.045Z,14.63
2019-05-21T11:10:34.792Z,14.67
2019-05-21T11:13:02.948Z,14.69
2019-05-21T11:15:31.126Z,14.71
2019-05-21T11:18:10.528Z,14.72
2019-05-21T11:20:29.141Z,14.74
2019-05-21T11:22:58.383Z,14.74
2019-05-21T11:25:26.783Z,14.78
2019-05-21T11:27:54.931Z,14.86
2019-05-21T11:30:23.037Z,14.88
2019-05-21T11:32:51.220Z,14.88
2019-05-21T11:35:20.498Z,15.01
2019-05-21T11:37:48.619Z,15.10
2019-05-21T11:40:17.652Z,15.17
2019-05-21T11:42:45.779Z,15.25
2019-05-21T11:45:30.709Z,15.23
2019-05-21T11:47:43.996Z,15.26
2019-05-21T11:50:12.512Z,15.30
2019-05-21T11:52:40.673Z,15.34
2019-05-21T11:55:08.906Z,15.41
2019-05-21T11:57:37.033Z,15.52
2019-05-21T12:00:05.802Z,15.58
2019-05-21T12:02:33.958Z,15.60
2019-05-21T12:05:02.069Z,15.61
2019-05-21T12:07:30.227Z,15.67
2019-05-21T12:09:59.092Z,15.71
2019-05-21T12:12:27.336Z,15.78
2019-05-21T12:14:55.538Z,15.78
2019-05-21T12:17:23.693Z,15.80
2019-05-21T12:19:51.967Z,15.77
2019-05-21T12:22:20.139Z,15.77
2019-05-21T12:24:48.298Z,15.71
2019-05-21T12:27:16.510Z,15.69
2019-05-21T12:29:44.628Z,15.59
2019-05-21T12:32:12.774Z,15.52
2019-05-21T12:34:40.933Z,15.52
2019-05-21T12:37:09.050Z,15.55
2019-05-21T12:39:37.200Z,15.57
2019-05-21T12:42:05.455Z,15.59
2019-05-21T12:44:33.590Z,15.58
2019-05-21T12:47:01.730Z,15.63
2019-05-21T12:49:29.864Z,15.66
2019-05-21T12:51:58.011Z,15.66
2019-05-21T12:54:26.158Z,15.63
2019-05-21T12:56:54.345Z,15.66
2019-05-21T12:59:22.495Z,15.77
2019-05-21T13:01:50.619Z,15.81
2019-05-21T13:04:18.770Z,15.86
2019-05-21T13:06:46.929Z,15.93
2019-05-21T13:09:31.337Z,15.98
2019-05-21T13:11:44.977Z,15.97
2019-05-21T13:14:16.315Z,15.91
2019-05-21T13:16:43.013Z,15.92
2019-05-21T13:19:11.465Z,15.95
2019-05-21T13:21:39.674Z,16.04
2019-05-21T13:24:07.844Z,16.13
2019-05-21T13:26:36.699Z,16.20
2019-05-21T13:29:04.935Z,16.30
2019-05-21T13:31:33.783Z,16.39
2019-05-21T13:34:01.920Z,16.41
2019-05-21T13:36:30.062Z,16.44
2019-05-21T13:38:58.191Z,16.48
2019-05-21T13:41:26.340Z,16.55
2019-05-21T13:43:54.483Z,16.63
2019-05-21T13:46:22.704Z,16.61
2019-05-21T13:48:50.866Z,16.62
2019-05-21T13:51:18.998Z,16.62
2019-05-21T13:53:47.136Z,16.55
2019-05-21T13:56:15.384Z,16.54
2019-05-21T13:58:43.490Z,16.57
2019-05-21T14:01:15.719Z,16.62
2019-05-21T14:03:42.186Z,16.62
2019-05-21T14:06:10.364Z,16.64
2019-05-21T14:08:38.502Z,16.70
2019-05-21T14:11:06.645Z,16.71
2019-05-21T14:13:34.870Z,16.76
2019-05-21T14:16:02.991Z,16.80
2019-05-21T14:18:31.122Z,16.78
2019-05-21T14:20:59.274Z,16.79
2019-05-21T14:23:27.407Z,16.82
2019-05-21T14:25:55.625Z,16.84
2019-05-21T14:28:23.830Z,16.86
2019-05-21T14:30:52.258Z,16.88
2019-05-21T14:33:20.404Z,16.89
2019-05-21T14:35:51.313Z,16.91
2019-05-21T14:38:19.520Z,16.94
2019-05-21T14:40:47.664Z,16.95
2019-05-21T14:43:16.419Z,17.02
2019-05-21T14:45:44.569Z,17.03
2019-05-21T14:48:12.783Z,17.02
2019-05-21T14:50:40.921Z,17.02
2019-05-21T14:53:09.133Z,17.01
2019-05-21T14:55:37.246Z,16.98
2019-05-21T14:58:06.512Z,16.91
2019-05-21T15:00:34.726Z,16.80
2019-05-21T15:03:03.631Z,16.71
2019-05-21T15:05:32.323Z,16.65
2019-05-21T15:08:00.456Z,16.60
2019-05-21T15:10:28.641Z,16.58
2019-05-21T15:12:56.856Z,16.52
2019-05-21T15:15:25.013Z,16.48
2019-05-21T15:17:53.183Z,16.43
2019-05-21T15:20:21.532Z,16.40
2019-05-21T15:22:49.640Z,16.31
2019-05-21T15:25:17.812Z,16.30
2019-05-21T15:27:45.945Z,16.29
2019-05-21T15:30:14.071Z,16.17
2019-05-21T15:32:42.222Z,16.11
2019-05-21T15:35:10.378Z,16.02
2019-05-21T15:37:38.866Z,15.94
2019-05-21T15:40:07.965Z,15.85
2019-05-21T15:42:36.095Z,15.80
2019-05-21T15:45:06.616Z,15.82
2019-05-21T15:47:33.835Z,15.84
2019-05-21T15:50:01.991Z,15.82
2019-05-21T15:52:30.254Z,15.83
2019-05-21T15:54:58.435Z,15.87
2019-05-21T15:57:26.590Z,15.86
2019-05-21T15:59:54.813Z,15.89
2019-05-21T16:02:23.004Z,15.89
2019-05-21T16:04:51.172Z,15.90
2019-05-21T16:07:19.294Z,15.85
2019-05-21T16:09:47.432Z,15.85
2019-05-21T16:12:15.633Z,15.82
2019-05-21T16:14:43.766Z,15.76
2019-05-21T16:17:12.789Z,15.64
2019-05-21T16:19:40.972Z,15.58
2019-05-21T16:22:09.126Z,15.52
2019-05-21T16:24:37.673Z,15.42
2019-05-21T16:27:05.805Z,15.38
2019-05-21T16:29:33.922Z,15.38
2019-05-21T16:32:03.467Z,15.36
2019-05-21T16:34:32.178Z,15.28
2019-05-21T16:37:00.414Z,15.23
2019-05-21T16:39:29.857Z,15.11
2019-05-21T16:41:58.019Z,15.00
2019-05-21T16:44:26.249Z,14.88
2019-05-21T16:46:57.483Z,14.79
2019-05-21T16:49:25.735Z,14.69
2019-05-21T16:51:53.945Z,14.60
2019-05-21T16:54:22.235Z,14.53
2019-05-21T16:56:50.396Z,14.47
2019-05-21T16:59:18.552Z,14.37
2019-05-21T17:01:46.690Z,14.31
2019-05-21T17:04:14.809Z,14.23
2019-05-21T17:06:42.975Z,14.18
2019-05-21T17:09:12.970Z,14.15
2019-05-21T17:11:41.085Z,14.13
2019-05-21T17:14:09.223Z,14.00
2019-05-21T17:16:37.399Z,13.98
2019-05-21T17:19:05.622Z,13.93
2019-05-21T17:21:33.750Z,13.90
2019-05-21T17:24:03.409Z,13.88
2019-05-21T17:26:31.553Z,13.87
2019-05-21T17:28:59.703Z,13.88
2019-05-21T17:31:27.865Z,13.87
2019-05-21T17:33:56.032Z,13.82
2019-05-21T17:36:24.188Z,13.79
2019-05-21T17:38:52.343Z,13.73
2019-05-21T17:41:20.513Z,13.68
2019-05-21T17:43:48.632Z,13.62
2019-05-21T17:46:16.969Z,13.54
2019-05-21T17:48:45.094Z,13.52
2019-05-21T17:51:13.400Z,13.48
2019-05-21T17:53:41.579Z,13.45
2019-05-21T17:56:09.687Z,13.41
2019-05-21T17:58:37.881Z,13.35
2019-05-21T18:01:06.005Z,13.34
2019-05-21T18:03:34.143Z,13.27
2019-05-21T18:06:05.234Z,13.22
2019-05-21T18:08:33.382Z,13.18
2019-05-21T18:11:01.765Z,13.14
2019-05-21T18:13:29.982Z,13.11
2019-05-21T18:15:58.230Z,13.06
2019-05-21T18:18:26.498Z,13.04
2019-05-21T18:20:54.676Z,13.04
2019-05-21T18:23:22.825Z,13.02
2019-05-21T18:25:50.979Z,12.96
2019-05-21T18:28:19.141Z,12.93
2019-05-21T18:30:47.274Z,12.86
2019-05-21T18:33:15.510Z,12.84
2019-05-21T18:35:45.444Z,12.77
2019-05-21T18:38:13.707Z,12.76
2019-05-21T18:40:41.979Z,12.75
2019-05-21T18:43:10.108Z,12.74
2019-05-21T18:45:38.434Z,12.74
2019-05-21T18:48:06.572Z,12.72
2019-05-21T18:50:36.563Z,12.69
2019-05-21T18:53:04.638Z,12.66
2019-05-21T18:55:32.912Z,12.65
2019-05-21T18:58:02.294Z,12.64
2019-05-21T19:00:30.764Z,12.60
2019-05-21T19:02:58.913Z,12.56
2019-05-21T19:05:27.082Z,12.56
2019-05-21T19:07:55.357Z,12.52
2019-05-21T19:10:23.550Z,12.48
2019-05-21T19:12:51.878Z,12.47
2019-05-21T19:15:20.044Z,12.44
2019-05-21T19:17:48.228Z,12.46
2019-05-21T19:20:17.099Z,12.46
2019-05-21T19:22:45.233Z,12.44
2019-05-21T19:25:13.505Z,12.46
2019-05-21T19:27:41.613Z,12.47
2019-05-21T19:30:10.244Z,12.48
2019-05-21T19:32:38.428Z,12.50
2019-05-21T19:35:08.294Z,12.48
2019-05-21T19:37:36.438Z,12.45
2019-05-21T19:40:07.111Z,12.45
2019-05-21T19:42:35.222Z,12.45
2019-05-21T19:45:04.223Z,12.43
2019-05-21T19:47:32.390Z,12.41
2019-05-21T19:50:00.528Z,12.40
2019-05-21T19:52:28.645Z,12.40
2019-05-21T19:54:56.946Z,12.39
2019-05-21T19:57:25.161Z,12.37
2019-05-21T19:59:53.399Z,12.37
2019-05-21T20:02:21.563Z,12.35
2019-05-21T20:04:49.818Z,12.34
2019-05-21T20:07:17.972Z,12.33
2019-05-21T20:09:46.121Z,12.30
2019-05-21T20:12:14.367Z,12.29
2019-05-21T20:14:42.529Z,12.28
2019-05-21T20:17:11.133Z,12.26
2019-05-21T20:19:40.056Z,12.26
2019-05-21T20:22:08.501Z,12.25
2019-05-21T20:24:36.632Z,12.25
2019-05-21T20:27:05.510Z,12.25
2019-05-21T20:29:34.258Z,12.23
2019-05-21T20:32:03.942Z,12.25
2019-05-21T20:34:32.105Z,12.27
2019-05-21T20:37:19.055Z,12.27
2019-05-21T20:39:39.966Z,12.28
2019-05-21T20:42:12.103Z,12.28
2019-05-21T20:44:40.243Z,12.25
2019-05-21T20:47:08.788Z,12.24
2019-05-21T20:49:40.351Z,12.23
2019-05-21T20:52:18.484Z,12.22
2019-05-21T20:54:47.011Z,12.22
2019-05-21T20:57:15.251Z,12.21
2019-05-21T20:59:43.520Z,12.20
2019-05-21T21:02:13.503Z,12.19
2019-05-21T21:04:43.064Z,12.21
2019-05-21T21:07:11.227Z,12.22
2019-05-21T21:09:41.394Z,12.23
2019-05-21T21:12:10.156Z,12.20
2019-05-21T21:14:39.180Z,12.15
2019-05-21T21:17:10.200Z,12.09
2019-05-21T21:19:38.809Z,12.09
2019-05-21T21:22:07.007Z,12.08
2019-05-21T21:24:35.327Z,12.08
2019-05-21T21:27:04.526Z,12.09
2019-05-21T21:29:32.663Z,12.10
2019-05-21T21:32:00.895Z,12.12
2019-05-21T21:34:29.022Z,12.11
2019-05-21T21:36:57.224Z,12.13
2019-05-21T21:39:25.653Z,12.14
2019-05-21T21:41:53.926Z,12.11
2019-05-21T21:44:33.660Z,12.06
2019-05-21T21:46:52.278Z,12.05
2019-05-21T21:49:20.439Z,12.05
2019-05-21T21:51:48.703Z,12.04
2019-05-21T21:54:17.012Z,12.04
2019-05-21T21:56:45.175Z,12.03
2019-05-21T21:59:13.321Z,12.02
2019-05-21T22:01:51.535Z,12.02
2019-05-21T22:04:23.037Z,11.98
2019-05-21T22:06:51.295Z,11.96
2019-05-21T22:09:19.643Z,11.96
2019-05-21T22:11:47.775Z,11.93
2019-05-21T22:14:15.971Z,11.92
2019-05-21T22:16:45.026Z,11.91
2019-05-21T22:19:13.380Z,11.89
2019-05-21T22:21:41.518Z,11.88
2019-05-21T22:24:09.625Z,11.84
2019-05-21T22:26:37.757Z,11.79
2019-05-21T22:29:05.930Z,11.79
2019-05-21T22:31:34.081Z,11.77
2019-05-21T22:34:03.692Z,11.74
2019-05-21T22:36:31.811Z,11.73
2019-05-21T22:38:59.925Z,11.75
2019-05-21T22:41:28.069Z,11.77
2019-05-21T22:43:56.343Z,11.77
2019-05-21T22:46:24.677Z,11.79
2019-05-21T22:48:53.041Z,11.77
2019-05-21T22:51:21.164Z,11.74
2019-05-21T22:53:49.303Z,11.72
2019-05-21T22:56:17.429Z,11.72
2019-05-21T22:58:45.558Z,11.72
2019-05-21T23:01:14.172Z,11.72
2019-05-21T23:03:42.335Z,11.71
2019-05-21T23:06:10.629Z,11.70
2019-05-21T23:08:38.746Z,11.69
2019-05-21T23:11:07.008Z,11.68
2019-05-21T23:13:35.177Z,11.65
2019-05-21T23:16:03.584Z,11.63
2019-05-21T23:18:31.759Z,11.63
2019-05-21T23:20:59.870Z,11.62
2019-05-21T23:23:28.145Z,11.63
2019-05-21T23:25:57.504Z,11.60
2019-05-21T23:28:25.789Z,11.61
2019-05-21T23:30:54.026Z,11.61
2019-05-21T23:33:22.235Z,11.63
2019-05-21T23:35:50.446Z,11.61
2019-05-21T23:38:19.193Z,11.61
2019-05-21T23:40:48.637Z,11.61
2019-05-21T23:43:17.246Z,11.62
2019-05-21T23:45:45.580Z,11.65
2019-05-21T23:48:14.606Z,11.66
2019-05-21T23:50:43.434Z,11.66
2019-05-21T23:53:11.552Z,11.66
2019-05-21T23:55:39.678Z,11.68
2019-05-21T23:58:07.806Z,11.69
